createdAt,value
2019-03-15T00:01:37.960Z,17.87
2019-03-15T00:04:08.974Z,16.40
2019-03-15T00:06:39.854Z,21.73
2019-03-15T00:09:10.750Z,17.93
2019-03-15T00:11:41.694Z,17.17
2019-03-15T00:14:12.574Z,20.77
2019-03-15T00:16:46.253Z,20.03
2019-03-15T00:19:17.331Z,18.57
2019-03-15T00:21:48.229Z,18.47
2019-03-15T00:24:19.404Z,21.23
2019-03-15T00:26:50.360Z,19.03
2019-03-15T00:29:21.380Z,18.73
2019-03-15T00:31:52.208Z,18.97
2019-03-15T00:34:24.040Z,22.97
2019-03-15T00:36:54.915Z,21.77
2019-03-15T00:39:25.836Z,21.07
2019-03-15T00:41:56.708Z,22.77
2019-03-15T00:44:27.689Z,21.63
2019-03-15T00:46:58.537Z,20.50
2019-03-15T00:49:29.633Z,24.53
2019-03-15T00:52:00.552Z,23.47
2019-03-15T00:54:31.443Z,23.50
2019-03-15T00:57:02.302Z,23.23
2019-03-15T00:59:33.482Z,24.47
2019-03-15T01:02:04.633Z,23.57
2019-03-15T01:04:35.849Z,23.57
2019-03-15T01:07:07.179Z,25.13
2019-03-15T01:09:38.424Z,25.33
2019-03-15T01:12:09.293Z,26.10
2019-03-15T01:14:41.266Z,24.10
2019-03-15T01:17:12.010Z,24.73
2019-03-15T01:19:43.057Z,26.40
2019-03-15T01:22:14.037Z,26.57
2019-03-15T01:24:44.923Z,23.30
2019-03-15T01:27:15.874Z,27.93
2019-03-15T01:29:46.777Z,26.70
2019-03-15T01:32:17.713Z,24.50
2019-03-15T01:34:48.578Z,24.90
2019-03-15T01:37:19.413Z,26.37
2019-03-15T01:39:50.336Z,27.77
2019-03-15T01:42:21.801Z,27.33
2019-03-15T01:44:53.360Z,27.60
2019-03-15T01:47:24.567Z,28.47
2019-03-15T01:49:56.825Z,27.23
2019-03-15T01:52:27.676Z,25.83
2019-03-15T01:54:59.776Z,31.73
2019-03-15T01:57:30.700Z,26.93
2019-03-15T02:00:01.583Z,23.70
2019-03-15T02:02:32.478Z,27.87
2019-03-15T02:05:03.371Z,26.57
2019-03-15T02:07:35.153Z,23.63
2019-03-15T02:10:07.499Z,24.90
2019-03-15T02:12:38.317Z,25.87
2019-03-15T02:15:09.851Z,23.93
2019-03-15T02:17:40.644Z,25.80
2019-03-15T02:20:11.640Z,26.53
2019-03-15T02:22:42.513Z,25.53
2019-03-15T02:25:13.388Z,25.10
2019-03-15T02:27:44.214Z,26.03
2019-03-15T02:30:15.258Z,24.43
2019-03-15T02:32:46.168Z,23.67
2019-03-15T02:35:17.028Z,27.97
2019-03-15T02:37:47.901Z,26.47
2019-03-15T02:40:18.949Z,25.27
2019-03-15T02:42:49.747Z,24.17
2019-03-15T02:45:20.858Z,23.27
2019-03-15T02:47:51.926Z,24.77
2019-03-15T02:50:23.003Z,25.77
2019-03-15T02:52:53.984Z,27.13
2019-03-15T02:55:25.050Z,27.93
2019-03-15T02:57:56.214Z,22.57
2019-03-15T03:00:27.511Z,23.50
2019-03-15T03:02:58.384Z,24.40
2019-03-15T03:05:29.242Z,24.53
2019-03-15T03:08:00.234Z,25.37
2019-03-15T03:10:31.145Z,26.13
2019-03-15T03:13:02.001Z,26.07
2019-03-15T03:15:34.304Z,25.80
2019-03-15T03:18:05.379Z,25.73
2019-03-15T03:20:36.428Z,25.47
2019-03-15T03:23:07.623Z,25.50
2019-03-15T03:25:38.439Z,27.37
2019-03-15T03:28:09.296Z,25.47
2019-03-15T03:30:40.198Z,23.53
2019-03-15T03:33:12.358Z,27.63
2019-03-15T03:35:43.739Z,25.30
2019-03-15T03:38:14.953Z,28.37
2019-03-15T03:40:45.844Z,26.90
2019-03-15T03:43:16.731Z,28.60
2019-03-15T03:45:47.948Z,26.10
2019-03-15T03:48:18.743Z,26.17
2019-03-15T03:50:49.682Z,30.17
2019-03-15T03:53:20.646Z,28.53
2019-03-15T03:55:51.861Z,26.73
2019-03-15T03:58:23.942Z,28.97
2019-03-15T04:00:54.872Z,28.90
2019-03-15T04:03:26.080Z,29.30
2019-03-15T04:05:57.112Z,27.07
2019-03-15T04:08:28.159Z,30.73
2019-03-15T04:11:00.219Z,30.17
2019-03-15T04:13:31.215Z,33.67
2019-03-15T04:16:02.219Z,32.50
2019-03-15T04:18:33.132Z,31.07
2019-03-15T04:21:04.113Z,32.03
2019-03-15T04:23:37.975Z,32.53
2019-03-15T04:26:07.737Z,27.90
2019-03-15T04:28:38.682Z,29.50
2019-03-15T04:31:09.545Z,32.33
2019-03-15T04:33:40.503Z,30.07
2019-03-15T04:36:11.765Z,28.27
2019-03-15T04:38:42.750Z,30.23
2019-03-15T04:41:13.897Z,30.30
2019-03-15T04:43:44.973Z,32.87
2019-03-15T04:46:16.126Z,30.43
2019-03-15T04:48:47.096Z,28.83
2019-03-15T04:51:18.144Z,30.70
2019-03-15T04:53:48.984Z,30.77
2019-03-15T04:56:19.964Z,27.37
2019-03-15T04:58:51.073Z,29.50
2019-03-15T05:01:22.161Z,32.63
2019-03-15T05:03:53.281Z,37.17
2019-03-15T05:06:24.160Z,42.70
2019-03-15T05:08:55.359Z,41.03
2019-03-15T05:11:26.601Z,43.70
2019-03-15T05:13:59.052Z,40.63
2019-03-15T05:16:30.672Z,41.87
2019-03-15T05:19:02.127Z,42.93
2019-03-15T05:21:33.519Z,43.73
2019-03-15T05:24:06.050Z,43.80
2019-03-15T05:26:37.182Z,46.87
2019-03-15T05:29:08.279Z,45.37
2019-03-15T05:31:39.410Z,46.23
2019-03-15T05:34:10.507Z,48.73
2019-03-15T05:36:41.708Z,48.03
2019-03-15T05:39:15.408Z,43.40
2019-03-15T05:41:46.740Z,44.77
2019-03-15T05:44:18.300Z,42.53
2019-03-15T05:46:51.174Z,40.13
2019-03-15T05:49:22.291Z,39.57
2019-03-15T05:51:53.252Z,37.17
2019-03-15T05:54:24.300Z,41.33
2019-03-15T05:56:56.822Z,41.73
2019-03-15T05:59:29.242Z,35.23
2019-03-15T06:02:00.216Z,38.53
2019-03-15T06:04:31.090Z,32.67
2019-03-15T06:07:02.051Z,35.37
2019-03-15T06:09:33.406Z,37.73
2019-03-15T06:12:04.732Z,35.50
2019-03-15T06:14:35.648Z,31.73
2019-03-15T06:17:06.730Z,30.57
2019-03-15T06:19:38.270Z,29.27
2019-03-15T06:22:09.342Z,29.33
2019-03-15T06:24:40.992Z,25.93
2019-03-15T06:27:12.640Z,27.37
2019-03-15T06:29:43.623Z,26.10
2019-03-15T06:32:14.971Z,27.47
2019-03-15T06:34:46.437Z,25.53
2019-03-15T06:37:17.547Z,26.27
2019-03-15T06:39:48.720Z,24.37
2019-03-15T06:42:19.794Z,25.17
2019-03-15T06:44:57.778Z,23.60
2019-03-15T06:47:23.567Z,23.47
2019-03-15T06:49:54.651Z,22.50
2019-03-15T06:52:25.797Z,24.47
2019-03-15T06:54:57.208Z,20.97
2019-03-15T06:57:28.275Z,20.70
2019-03-15T06:59:59.675Z,22.67
2019-03-15T07:02:30.754Z,18.17
2019-03-15T07:05:01.845Z,20.53
2019-03-15T07:07:32.967Z,20.53
2019-03-15T07:10:03.925Z,19.17
2019-03-15T07:12:35.141Z,21.43
2019-03-15T07:15:07.307Z,19.37
2019-03-15T07:17:39.043Z,20.80
2019-03-15T07:20:10.771Z,21.40
2019-03-15T07:22:42.004Z,19.77
2019-03-15T07:25:13.285Z,19.23
2019-03-15T07:27:44.810Z,18.83
2019-03-15T07:30:16.291Z,17.93
2019-03-15T07:32:48.057Z,19.80
2019-03-15T07:35:20.161Z,17.17
2019-03-15T07:37:51.686Z,19.07
2019-03-15T07:40:23.148Z,19.20
2019-03-15T07:42:54.819Z,19.83
2019-03-15T07:45:26.305Z,21.57
2019-03-15T07:47:57.840Z,15.90
2019-03-15T07:50:29.462Z,18.87
2019-03-15T07:53:00.878Z,18.23
2019-03-15T07:55:32.335Z,16.63
2019-03-15T07:58:03.705Z,18.00
2019-03-15T08:00:35.239Z,22.47
2019-03-15T08:03:06.820Z,19.80
2019-03-15T08:05:38.328Z,17.20
2019-03-15T08:08:09.537Z,18.57
2019-03-15T08:10:40.921Z,15.00
2019-03-15T08:13:12.453Z,16.97
2019-03-15T08:15:44.058Z,14.80
2019-03-15T08:18:15.871Z,12.53
2019-03-15T08:20:47.495Z,13.87
2019-03-15T08:23:18.941Z,14.33
2019-03-15T08:25:50.597Z,14.27
2019-03-15T08:28:21.897Z,14.40
2019-03-15T08:30:53.166Z,12.93
2019-03-15T08:33:26.615Z,14.30
2019-03-15T08:35:57.900Z,13.90
2019-03-15T08:38:29.188Z,12.90
2019-03-15T08:41:00.567Z,13.03
2019-03-15T08:43:32.249Z,12.10
2019-03-15T08:46:03.582Z,12.87
2019-03-15T08:48:35.123Z,8.00
2019-03-15T08:51:06.649Z,7.40
2019-03-15T08:53:38.136Z,9.03
2019-03-15T08:56:09.413Z,6.93
2019-03-15T08:58:40.759Z,6.73
2019-03-15T09:01:12.346Z,3.20
2019-03-15T09:03:43.934Z,3.80
2019-03-15T09:06:15.215Z,4.33
2019-03-15T09:08:46.608Z,3.93
2019-03-15T09:11:18.933Z,4.00
2019-03-15T09:13:50.194Z,2.63
2019-03-15T09:16:21.907Z,2.23
2019-03-15T09:18:55.468Z,4.47
2019-03-15T09:21:26.581Z,6.17
2019-03-15T09:23:57.648Z,5.50
2019-03-15T09:26:28.853Z,6.43
2019-03-15T09:28:59.871Z,8.00
2019-03-15T09:31:42.389Z,8.70
2019-03-15T09:34:04.144Z,7.80
2019-03-15T09:36:48.981Z,10.53
2019-03-15T09:39:09.030Z,11.33
2019-03-15T09:41:40.404Z,10.83
2019-03-15T09:44:11.661Z,8.17
2019-03-15T09:46:42.938Z,9.03
2019-03-15T09:49:14.028Z,9.47
2019-03-15T09:51:45.045Z,10.27
2019-03-15T09:54:16.240Z,9.90
2019-03-15T09:56:47.598Z,10.47
2019-03-15T09:59:19.592Z,10.17
2019-03-15T10:01:51.465Z,12.77
2019-03-15T10:04:22.868Z,11.17
2019-03-15T10:06:54.126Z,9.47
2019-03-15T10:09:25.481Z,8.67
2019-03-15T10:11:56.737Z,8.93
2019-03-15T10:14:27.960Z,8.47
2019-03-15T10:17:02.506Z,7.97
2019-03-15T10:19:33.762Z,10.00
2019-03-15T10:22:04.829Z,8.60
2019-03-15T10:24:35.893Z,8.93
2019-03-15T10:27:07.131Z,7.00
2019-03-15T10:29:38.517Z,5.53
2019-03-15T10:32:09.596Z,4.50
2019-03-15T10:34:40.844Z,4.03
2019-03-15T10:37:12.175Z,4.63
2019-03-15T10:39:44.314Z,4.00
2019-03-15T10:42:15.439Z,3.73
2019-03-15T10:44:46.746Z,6.20
2019-03-15T10:47:17.941Z,4.23
2019-03-15T10:49:49.048Z,3.03
2019-03-15T10:52:20.377Z,3.20
2019-03-15T10:54:51.543Z,3.43
2019-03-15T10:57:22.691Z,2.80
2019-03-15T10:59:53.988Z,2.57
2019-03-15T11:02:25.380Z,2.30
2019-03-15T11:04:56.803Z,3.07
2019-03-15T11:07:28.126Z,3.20
2019-03-15T11:09:59.472Z,3.00
2019-03-15T11:12:30.562Z,2.73
2019-03-15T11:15:01.834Z,3.27
2019-03-15T11:17:34.437Z,4.97
2019-03-15T11:20:06.079Z,7.23
2019-03-15T11:22:37.043Z,4.67
2019-03-15T11:25:08.301Z,3.47
2019-03-15T11:27:39.580Z,3.17
2019-03-15T11:30:10.981Z,4.80
2019-03-15T11:32:42.341Z,3.07
2019-03-15T11:35:14.048Z,3.07
2019-03-15T11:37:45.192Z,4.00
2019-03-15T11:40:19.161Z,3.63
2019-03-15T11:42:49.282Z,1.50
2019-03-15T11:45:20.621Z,1.97
2019-03-15T11:48:03.332Z,2.70
2019-03-15T11:50:24.439Z,3.07
2019-03-15T11:52:55.641Z,3.37
2019-03-15T11:55:27.146Z,2.60
2019-03-15T11:57:58.768Z,2.50
2019-03-15T12:00:30.261Z,3.80
2019-03-15T12:03:02.041Z,4.97
2019-03-15T12:05:33.451Z,4.23
2019-03-15T12:08:05.020Z,4.33
2019-03-15T12:10:36.625Z,7.13
2019-03-15T12:13:08.332Z,3.83
2019-03-15T12:15:39.592Z,4.03
2019-03-15T12:18:10.818Z,2.83
2019-03-15T12:20:42.018Z,2.20
2019-03-15T12:23:13.082Z,3.83
2019-03-15T12:25:44.469Z,3.87
2019-03-15T12:28:15.810Z,1.83
2019-03-15T12:30:47.238Z,2.60
2019-03-15T12:33:18.231Z,2.17
2019-03-15T12:35:49.498Z,3.07
2019-03-15T12:38:20.766Z,4.07
2019-03-15T12:40:52.156Z,3.40
2019-03-15T12:43:23.821Z,3.77
2019-03-15T12:45:55.277Z,4.20
2019-03-15T12:48:26.342Z,3.10
2019-03-15T12:50:57.614Z,3.63
2019-03-15T12:53:28.657Z,4.17
2019-03-15T12:55:59.985Z,4.20
2019-03-15T12:58:31.345Z,3.50
2019-03-15T13:01:02.800Z,5.50
2019-03-15T13:03:33.918Z,3.20
2019-03-15T13:06:05.396Z,4.63
2019-03-15T13:08:36.872Z,2.37
2019-03-15T13:11:08.916Z,3.53
2019-03-15T13:13:40.282Z,3.50
2019-03-15T13:16:11.456Z,4.20
2019-03-15T13:18:42.531Z,3.17
2019-03-15T13:21:13.785Z,4.53
2019-03-15T13:23:44.891Z,5.17
2019-03-15T13:26:16.284Z,6.70
2019-03-15T13:28:47.913Z,6.00
2019-03-15T13:31:19.380Z,4.10
2019-03-15T13:33:50.927Z,3.63
2019-03-15T13:36:22.397Z,2.50
2019-03-15T13:38:53.504Z,2.60
2019-03-15T13:41:25.029Z,1.90
2019-03-15T13:43:56.286Z,2.53
2019-03-15T13:46:27.582Z,2.83
2019-03-15T13:48:58.592Z,2.53
2019-03-15T13:51:30.317Z,2.77
2019-03-15T13:54:02.018Z,3.20
2019-03-15T13:56:33.454Z,2.47
2019-03-15T13:59:04.924Z,3.50
2019-03-15T14:01:36.636Z,3.97
2019-03-15T14:04:08.478Z,3.93
2019-03-15T14:06:39.797Z,3.03
2019-03-15T14:09:11.359Z,4.30
2019-03-15T14:11:43.102Z,5.20
2019-03-15T14:14:14.251Z,3.57
2019-03-15T14:16:45.938Z,3.40
2019-03-15T14:19:17.487Z,4.60
2019-03-15T14:21:48.923Z,4.53
2019-03-15T14:24:22.776Z,4.87
2019-03-15T14:26:53.268Z,3.37
2019-03-15T14:29:24.839Z,5.13
2019-03-15T14:31:56.366Z,5.50
2019-03-15T14:34:27.575Z,4.53
2019-03-15T14:36:59.147Z,5.27
2019-03-15T14:39:31.050Z,4.97
2019-03-15T14:42:02.916Z,3.37
2019-03-15T14:44:34.256Z,5.87
2019-03-15T14:47:05.844Z,8.70
2019-03-15T14:49:38.332Z,8.63
2019-03-15T14:52:09.992Z,7.03
2019-03-15T14:54:42.363Z,5.77
2019-03-15T14:57:14.612Z,3.50
2019-03-15T14:59:49.049Z,5.97
2019-03-15T15:02:20.671Z,8.07
2019-03-15T15:04:52.246Z,7.27
2019-03-15T15:07:23.684Z,5.17
2019-03-15T15:10:45.695Z,5.87
2019-03-15T15:13:17.428Z,7.00
2019-03-15T15:15:48.651Z,8.17
2019-03-15T15:18:20.328Z,5.67
2019-03-15T15:20:51.740Z,5.10
2019-03-15T15:23:24.271Z,7.73
2019-03-15T15:25:55.825Z,8.30
2019-03-15T15:28:27.675Z,6.97
2019-03-15T15:30:59.102Z,6.57
2019-03-15T15:33:31.598Z,8.80
2019-03-15T15:36:03.185Z,7.83
2019-03-15T15:38:34.641Z,8.23
2019-03-15T15:41:07.941Z,6.00
2019-03-15T15:43:39.854Z,7.77
2019-03-15T15:46:11.072Z,9.70
2019-03-15T15:48:42.357Z,8.10
2019-03-15T15:51:13.819Z,8.50
2019-03-15T15:53:45.435Z,9.90
2019-03-15T15:56:16.696Z,8.83
2019-03-15T15:58:48.106Z,8.70
2019-03-15T16:01:19.439Z,11.47
2019-03-15T16:03:51.016Z,9.57
2019-03-15T16:06:22.504Z,12.53
2019-03-15T16:08:54.199Z,14.53
2019-03-15T16:11:25.765Z,15.97
2019-03-15T16:13:57.282Z,17.97
2019-03-15T16:16:28.892Z,16.93
2019-03-15T16:19:00.122Z,13.97
2019-03-15T16:21:31.540Z,12.27
2019-03-15T16:24:02.793Z,9.93
2019-03-15T16:26:34.261Z,9.10
2019-03-15T16:29:05.741Z,10.50
2019-03-15T16:31:37.153Z,14.23
2019-03-15T16:34:08.543Z,9.03
2019-03-15T16:36:40.097Z,9.90
2019-03-15T16:39:11.401Z,8.13
2019-03-15T16:41:42.597Z,8.00
2019-03-15T16:44:13.991Z,6.03
2019-03-15T16:46:45.482Z,10.33
2019-03-15T16:49:16.771Z,7.77
2019-03-15T16:51:47.771Z,7.47
2019-03-15T16:54:19.004Z,8.20
2019-03-15T16:56:50.113Z,10.00
2019-03-15T16:59:21.431Z,8.50
2019-03-15T17:01:54.449Z,12.37
2019-03-15T17:04:26.166Z,7.43
2019-03-15T17:07:00.613Z,6.53
2019-03-15T17:09:30.384Z,8.67
2019-03-15T17:12:01.596Z,9.70
2019-03-15T17:14:33.003Z,8.63
2019-03-15T17:17:04.467Z,14.40
2019-03-15T17:19:35.994Z,12.10
2019-03-15T17:22:07.174Z,10.77
2019-03-15T17:24:38.646Z,7.50
2019-03-15T17:27:10.161Z,13.57
2019-03-15T17:29:42.013Z,10.00
2019-03-15T17:32:13.509Z,12.40
2019-03-15T17:34:45.132Z,13.90
2019-03-15T17:37:16.589Z,12.70
2019-03-15T17:39:48.328Z,7.37
2019-03-15T17:42:19.815Z,9.17
2019-03-15T17:44:51.205Z,11.40
2019-03-15T17:47:22.421Z,8.53
2019-03-15T17:49:54.733Z,10.83
2019-03-15T17:52:27.086Z,9.63
2019-03-15T17:54:58.649Z,9.60
2019-03-15T17:57:30.142Z,11.20
2019-03-15T18:00:15.240Z,14.23
2019-03-15T18:02:46.761Z,11.97
2019-03-15T18:05:18.075Z,13.30
2019-03-15T18:07:49.402Z,11.17
2019-03-15T18:10:21.091Z,10.37
2019-03-15T18:12:52.543Z,11.57
2019-03-15T18:15:24.003Z,9.77
2019-03-15T18:17:55.423Z,13.57
2019-03-15T18:20:28.060Z,11.20
2019-03-15T18:22:59.346Z,11.47
2019-03-15T18:25:30.812Z,14.60
2019-03-15T18:28:02.084Z,12.60
2019-03-15T18:30:33.555Z,16.43
2019-03-15T18:33:04.988Z,12.77
2019-03-15T18:35:36.487Z,16.37
2019-03-15T18:38:08.074Z,14.03
2019-03-15T18:40:39.442Z,15.33
2019-03-15T18:43:11.751Z,13.43
2019-03-15T18:45:43.005Z,13.73
2019-03-15T18:48:17.290Z,15.33
2019-03-15T18:50:48.589Z,14.83
2019-03-15T18:53:20.035Z,12.77
2019-03-15T18:55:51.299Z,16.77
2019-03-15T18:58:22.681Z,12.00
2019-03-15T19:00:53.885Z,14.83
2019-03-15T19:03:24.790Z,11.13
2019-03-15T19:05:57.711Z,17.13
2019-03-15T19:08:28.958Z,13.03
2019-03-15T19:11:00.311Z,12.77
2019-03-15T19:13:33.875Z,13.87
2019-03-15T19:16:05.361Z,12.00
2019-03-15T19:18:36.487Z,10.50
2019-03-15T19:21:08.114Z,9.97
2019-03-15T19:23:39.062Z,10.53
2019-03-15T19:26:10.550Z,9.53
2019-03-15T19:28:42.120Z,10.50
2019-03-15T19:31:13.688Z,10.70
2019-03-15T19:33:45.181Z,12.40
2019-03-15T19:36:16.715Z,10.43
2019-03-15T19:38:48.027Z,12.27
2019-03-15T19:41:21.969Z,9.47
2019-03-15T19:43:53.664Z,9.17
2019-03-15T19:46:26.043Z,11.73
2019-03-15T19:48:57.751Z,13.77
2019-03-15T19:51:29.029Z,6.57
2019-03-15T19:54:01.679Z,6.20
2019-03-15T19:56:38.358Z,4.23
2019-03-15T19:59:09.689Z,2.80
2019-03-15T20:01:41.132Z,6.17
2019-03-15T20:04:12.588Z,2.47
2019-03-15T20:06:44.317Z,3.40
2019-03-15T20:09:15.621Z,4.53
2019-03-15T20:11:49.931Z,2.20
2019-03-15T20:14:21.337Z,5.03
2019-03-15T20:16:53.152Z,3.93
2019-03-15T20:19:24.692Z,3.03
2019-03-15T20:21:56.322Z,4.53
2019-03-15T20:24:27.586Z,5.80
2019-03-15T20:26:59.426Z,4.70
2019-03-15T20:29:31.066Z,7.10
2019-03-15T20:32:02.768Z,6.67
2019-03-15T20:34:35.286Z,7.47
2019-03-15T20:37:07.123Z,6.50
2019-03-15T20:39:38.614Z,7.50
2019-03-15T20:42:11.462Z,8.17
2019-03-15T20:44:44.289Z,7.23
2019-03-15T20:47:15.928Z,8.77
2019-03-15T20:49:48.093Z,10.87
2019-03-15T20:52:19.942Z,14.17
2019-03-15T20:54:54.419Z,8.40
2019-03-15T20:57:25.751Z,7.23
2019-03-15T21:00:03.516Z,12.77
2019-03-15T21:02:42.387Z,11.87
2019-03-15T21:05:18.467Z,13.53
2019-03-15T21:07:54.406Z,7.43
2019-03-15T21:10:26.136Z,7.93
2019-03-15T21:13:05.040Z,6.53
2019-03-15T21:15:36.712Z,9.57
2019-03-15T21:18:08.452Z,10.20
2019-03-15T21:20:39.462Z,7.50
2019-03-15T21:23:10.785Z,8.53
2019-03-15T21:25:45.088Z,9.27
2019-03-15T21:28:16.350Z,9.40
2019-03-15T21:30:50.334Z,13.37
2019-03-15T21:33:20.921Z,12.50
2019-03-15T21:35:52.128Z,10.37
2019-03-15T21:38:23.426Z,10.70
2019-03-15T21:40:55.307Z,14.93
2019-03-15T21:43:30.286Z,12.07
2019-03-15T21:46:03.260Z,11.13
2019-03-15T21:48:37.317Z,11.67
2019-03-15T21:51:08.773Z,8.50
2019-03-15T21:53:39.971Z,11.13
2019-03-15T21:56:11.260Z,12.73
2019-03-15T21:58:42.388Z,11.73
2019-03-15T22:01:13.682Z,13.37
2019-03-15T22:03:59.236Z,9.20
2019-03-15T22:06:32.307Z,8.03
2019-03-15T22:09:07.221Z,9.50
2019-03-15T22:11:38.616Z,10.50
2019-03-15T22:14:10.014Z,7.47
2019-03-15T22:16:41.519Z,8.83
2019-03-15T22:19:12.786Z,7.87
2019-03-15T22:21:45.288Z,7.00
2019-03-15T22:24:16.551Z,9.23
2019-03-15T22:26:47.465Z,6.27
2019-03-15T22:29:19.291Z,15.07
2019-03-15T22:31:50.339Z,11.07
2019-03-15T22:34:21.627Z,9.47
2019-03-15T22:36:55.425Z,11.03
2019-03-15T22:39:26.781Z,8.50
2019-03-15T22:41:58.078Z,7.60
2019-03-15T22:44:29.442Z,10.13
2019-03-15T22:47:01.781Z,7.03
2019-03-15T22:49:33.209Z,9.53
2019-03-15T22:52:05.099Z,3.83
2019-03-15T22:54:36.681Z,7.73
2019-03-15T22:57:08.033Z,9.50
2019-03-15T22:59:39.200Z,5.67
2019-03-15T23:02:10.598Z,4.73
2019-03-15T23:04:43.316Z,6.87
2019-03-15T23:07:14.546Z,5.80
2019-03-15T23:09:45.870Z,7.90
2019-03-15T23:12:17.000Z,5.67
2019-03-15T23:14:48.282Z,9.53
2019-03-15T23:17:19.510Z,5.20
2019-03-15T23:19:50.824Z,4.60
2019-03-15T23:22:25.122Z,5.23
2019-03-15T23:24:56.571Z,6.53
2019-03-15T23:27:29.347Z,4.40
2019-03-15T23:30:00.932Z,6.70
2019-03-15T23:32:32.404Z,2.33
2019-03-15T23:35:05.075Z,3.87
2019-03-15T23:37:36.218Z,4.80
2019-03-15T23:40:10.721Z,3.07
2019-03-15T23:42:42.028Z,5.33
2019-03-15T23:45:14.208Z,4.70
2019-03-15T23:47:47.636Z,4.30
2019-03-15T23:50:18.364Z,3.50
2019-03-15T23:52:49.345Z,1.37
2019-03-15T23:55:24.468Z,2.43
2019-03-15T23:57:57.190Z,1.63
